sensor_id;sensor_type;location;lat;lon;timestamp;temperature;humidity
74511;DHT22;62991;50.040;18.400;2023-05-20T00:01:42;24.10;54.80
74511;DHT22;62991;50.040;18.400;2023-05-20T00:04:43;24.10;54.80
74511;DHT22;62991;50.040;18.400;2023-05-20T00:07:44;24.10;54.80
74511;DHT22;62991;50.040;18.400;2023-05-20T00:10:44;24.10;54.90
74511;DHT22;62991;50.040;18.400;2023-05-20T00:13:45;24.10;55.00
74511;DHT22;62991;50.040;18.400;2023-05-20T00:16:46;24.10;55.00
74511;DHT22;62991;50.040;18.400;2023-05-20T00:19:47;24.10;55.00
74511;DHT22;62991;50.040;18.400;2023-05-20T00:22:47;24.10;55.10
74511;DHT22;62991;50.040;18.400;2023-05-20T00:25:48;24.10;55.10
74511;DHT22;62991;50.040;18.400;2023-05-20T00:28:49;24.10;55.00
74511;DHT22;62991;50.040;18.400;2023-05-20T00:31:50;24.00;55.20
74511;DHT22;62991;50.040;18.400;2023-05-20T00:34:57;24.00;55.10
74511;DHT22;62991;50.040;18.400;2023-05-20T00:37:58;24.00;55.20
74511;DHT22;62991;50.040;18.400;2023-05-20T00:40:59;24.00;55.20
74511;DHT22;62991;50.040;18.400;2023-05-20T00:44:00;24.00;55.30
74511;DHT22;62991;50.040;18.400;2023-05-20T00:47:00;24.00;55.20
74511;DHT22;62991;50.040;18.400;2023-05-20T00:50:02;24.00;55.30
74511;DHT22;62991;50.040;18.400;2023-05-20T00:53:03;24.00;55.30
74511;DHT22;62991;50.040;18.400;2023-05-20T00:56:05;24.00;55.30
74511;DHT22;62991;50.040;18.400;2023-05-20T00:59:07;24.00;55.40
74511;DHT22;62991;50.040;18.400;2023-05-20T01:02:08;24.00;55.40
74511;DHT22;62991;50.040;18.400;2023-05-20T01:05:08;24.00;55.50
74511;DHT22;62991;50.040;18.400;2023-05-20T01:08:09;24.00;55.30
74511;DHT22;62991;50.040;18.400;2023-05-20T01:11:37;24.00;55.40
74511;DHT22;62991;50.040;18.400;2023-05-20T01:15:09;23.90;55.50
74511;DHT22;62991;50.040;18.400;2023-05-20T01:18:10;24.00;55.50
74511;DHT22;62991;50.040;18.400;2023-05-20T01:21:12;23.90;55.50
74511;DHT22;62991;50.040;18.400;2023-05-20T01:24:15;23.90;55.30
74511;DHT22;62991;50.040;18.400;2023-05-20T01:27:15;24.00;55.30
74511;DHT22;62991;50.040;18.400;2023-05-20T01:30:16;23.90;55.30
74511;DHT22;62991;50.040;18.400;2023-05-20T01:33:19;23.90;55.40
74511;DHT22;62991;50.040;18.400;2023-05-20T01:36:21;23.90;55.10
74511;DHT22;62991;50.040;18.400;2023-05-20T01:39:23;23.90;55.30
74511;DHT22;62991;50.040;18.400;2023-05-20T01:42:26;23.90;55.30
74511;DHT22;62991;50.040;18.400;2023-05-20T01:45:27;23.90;55.30
74511;DHT22;62991;50.040;18.400;2023-05-20T01:48:27;23.90;55.30
74511;DHT22;62991;50.040;18.400;2023-05-20T01:51:28;23.90;55.30
74511;DHT22;62991;50.040;18.400;2023-05-20T01:54:30;23.90;55.30
74511;DHT22;62991;50.040;18.400;2023-05-20T01:57:30;23.90;55.20
74511;DHT22;62991;50.040;18.400;2023-05-20T02:00:32;23.90;55.30
74511;DHT22;62991;50.040;18.400;2023-05-20T02:03:35;23.90;55.30
74511;DHT22;62991;50.040;18.400;2023-05-20T02:06:36;23.90;55.20
74511;DHT22;62991;50.040;18.400;2023-05-20T02:09:37;23.90;55.30
74511;DHT22;62991;50.040;18.400;2023-05-20T02:12:37;23.90;55.20
74511;DHT22;62991;50.040;18.400;2023-05-20T02:15:40;23.90;55.20
74511;DHT22;62991;50.040;18.400;2023-05-20T02:18:41;23.80;55.10
74511;DHT22;62991;50.040;18.400;2023-05-20T02:21:42;23.90;55.20
74511;DHT22;62991;50.040;18.400;2023-05-20T02:24:44;23.90;55.30
74511;DHT22;62991;50.040;18.400;2023-05-20T02:27:45;23.90;55.20
74511;DHT22;62991;50.040;18.400;2023-05-20T02:30:45;23.90;55.20
74511;DHT22;62991;50.040;18.400;2023-05-20T02:33:46;23.90;55.20
74511;DHT22;62991;50.040;18.400;2023-05-20T02:36:47;23.90;55.20
74511;DHT22;62991;50.040;18.400;2023-05-20T02:39:48;23.80;55.20
74511;DHT22;62991;50.040;18.400;2023-05-20T02:42:48;23.90;55.20
74511;DHT22;62991;50.040;18.400;2023-05-20T02:45:49;23.80;55.30
74511;DHT22;62991;50.040;18.400;2023-05-20T02:48:50;23.90;55.10
74511;DHT22;62991;50.040;18.400;2023-05-20T02:51:50;23.80;55.10
74511;DHT22;62991;50.040;18.400;2023-05-20T02:54:51;23.80;55.20
74511;DHT22;62991;50.040;18.400;2023-05-20T02:57:52;23.80;55.30
74511;DHT22;62991;50.040;18.400;2023-05-20T03:00:52;23.80;55.10
74511;DHT22;62991;50.040;18.400;2023-05-20T03:03:53;23.80;55.10
74511;DHT22;62991;50.040;18.400;2023-05-20T03:06:54;23.80;55.20
74511;DHT22;62991;50.040;18.400;2023-05-20T03:09:57;23.80;55.20
74511;DHT22;62991;50.040;18.400;2023-05-20T03:13:04;23.80;55.10
74511;DHT22;62991;50.040;18.400;2023-05-20T03:16:07;23.80;55.30
74511;DHT22;62991;50.040;18.400;2023-05-20T03:19:08;23.80;55.00
74511;DHT22;62991;50.040;18.400;2023-05-20T03:22:09;23.80;55.00
74511;DHT22;62991;50.040;18.400;2023-05-20T03:25:10;23.80;55.20
74511;DHT22;62991;50.040;18.400;2023-05-20T03:28:11;23.80;55.10
74511;DHT22;62991;50.040;18.400;2023-05-20T03:31:12;23.80;55.20
74511;DHT22;62991;50.040;18.400;2023-05-20T03:34:12;23.80;55.20
74511;DHT22;62991;50.040;18.400;2023-05-20T03:37:13;23.80;55.20
74511;DHT22;62991;50.040;18.400;2023-05-20T03:40:14;23.80;55.10
74511;DHT22;62991;50.040;18.400;2023-05-20T03:43:14;23.80;55.20
74511;DHT22;62991;50.040;18.400;2023-05-20T03:46:15;23.80;55.20
74511;DHT22;62991;50.040;18.400;2023-05-20T03:49:16;23.80;55.20
74511;DHT22;62991;50.040;18.400;2023-05-20T03:52:16;23.80;55.20
74511;DHT22;62991;50.040;18.400;2023-05-20T03:55:17;23.80;55.20
74511;DHT22;62991;50.040;18.400;2023-05-20T03:58:19;23.80;55.20
74511;DHT22;62991;50.040;18.400;2023-05-20T04:01:21;23.80;55.20
74511;DHT22;62991;50.040;18.400;2023-05-20T04:04:25;23.80;55.30
74511;DHT22;62991;50.040;18.400;2023-05-20T04:07:25;23.80;55.20
74511;DHT22;62991;50.040;18.400;2023-05-20T04:10:26;23.80;55.30
74511;DHT22;62991;50.040;18.400;2023-05-20T04:13:26;23.80;55.20
74511;DHT22;62991;50.040;18.400;2023-05-20T04:16:27;23.80;55.20
74511;DHT22;62991;50.040;18.400;2023-05-20T04:19:29;23.80;55.20
74511;DHT22;62991;50.040;18.400;2023-05-20T04:22:29;23.80;55.20
74511;DHT22;62991;50.040;18.400;2023-05-20T04:25:30;23.80;55.20
74511;DHT22;62991;50.040;18.400;2023-05-20T04:28:30;23.80;55.10
74511;DHT22;62991;50.040;18.400;2023-05-20T04:31:31;23.80;55.20
74511;DHT22;62991;50.040;18.400;2023-05-20T04:34:32;23.80;55.20
74511;DHT22;62991;50.040;18.400;2023-05-20T04:37:34;23.80;55.20
74511;DHT22;62991;50.040;18.400;2023-05-20T04:40:36;23.80;55.10
74511;DHT22;62991;50.040;18.400;2023-05-20T04:43:38;23.80;55.10
74511;DHT22;62991;50.040;18.400;2023-05-20T04:46:39;23.80;55.10
74511;DHT22;62991;50.040;18.400;2023-05-20T04:49:41;23.80;55.10
74511;DHT22;62991;50.040;18.400;2023-05-20T04:52:41;23.80;54.90
74511;DHT22;62991;50.040;18.400;2023-05-20T04:55:46;23.80;55.00
74511;DHT22;62991;50.040;18.400;2023-05-20T04:58:47;23.80;55.00
74511;DHT22;62991;50.040;18.400;2023-05-20T05:01:48;23.80;55.00
74511;DHT22;62991;50.040;18.400;2023-05-20T05:04:48;23.80;55.00
74511;DHT22;62991;50.040;18.400;2023-05-20T05:07:49;23.60;52.60
74511;DHT22;62991;50.040;18.400;2023-05-20T05:10:50;22.70;57.30
74511;DHT22;62991;50.040;18.400;2023-05-20T05:13:51;23.10;56.70
74511;DHT22;62991;50.040;18.400;2023-05-20T05:16:51;23.20;56.00
74511;DHT22;62991;50.040;18.400;2023-05-20T05:19:52;23.30;55.60
74511;DHT22;62991;50.040;18.400;2023-05-20T05:22:53;23.40;55.10
74511;DHT22;62991;50.040;18.400;2023-05-20T05:25:54;23.40;55.00
74511;DHT22;62991;50.040;18.400;2023-05-20T05:28:54;23.50;55.00
74511;DHT22;62991;50.040;18.400;2023-05-20T05:31:55;23.50;54.80
74511;DHT22;62991;50.040;18.400;2023-05-20T05:34:56;23.50;54.80
74511;DHT22;62991;50.040;18.400;2023-05-20T05:37:56;23.50;54.90
74511;DHT22;62991;50.040;18.400;2023-05-20T05:40:57;23.70;55.20
74511;DHT22;62991;50.040;18.400;2023-05-20T05:43:58;23.80;55.40
74511;DHT22;62991;50.040;18.400;2023-05-20T05:46:59;23.90;55.20
74511;DHT22;62991;50.040;18.400;2023-05-20T05:49:59;24.00;55.30
74511;DHT22;62991;50.040;18.400;2023-05-20T05:53:00;24.00;55.50
74511;DHT22;62991;50.040;18.400;2023-05-20T05:56:01;24.00;55.40
74511;DHT22;62991;50.040;18.400;2023-05-20T05:59:01;24.00;55.60
74511;DHT22;62991;50.040;18.400;2023-05-20T06:02:02;24.10;55.50
74511;DHT22;62991;50.040;18.400;2023-05-20T06:05:03;24.10;55.30
74511;DHT22;62991;50.040;18.400;2023-05-20T06:08:04;24.10;55.30
74511;DHT22;62991;50.040;18.400;2023-05-20T06:11:05;24.10;55.30
74511;DHT22;62991;50.040;18.400;2023-05-20T06:14:05;24.10;55.30
74511;DHT22;62991;50.040;18.400;2023-05-20T06:17:06;24.20;55.30
74511;DHT22;62991;50.040;18.400;2023-05-20T06:20:07;24.20;55.40
74511;DHT22;62991;50.040;18.400;2023-05-20T06:23:08;24.20;55.20
74511;DHT22;62991;50.040;18.400;2023-05-20T06:26:08;24.20;55.30
74511;DHT22;62991;50.040;18.400;2023-05-20T06:29:09;24.20;55.40
74511;DHT22;62991;50.040;18.400;2023-05-20T06:32:09;24.20;55.30
74511;DHT22;62991;50.040;18.400;2023-05-20T06:35:10;24.20;55.30
74511;DHT22;62991;50.040;18.400;2023-05-20T06:38:11;24.20;55.30
74511;DHT22;62991;50.040;18.400;2023-05-20T06:41:12;24.20;55.40
74511;DHT22;62991;50.040;18.400;2023-05-20T06:44:13;24.20;55.40
74511;DHT22;62991;50.040;18.400;2023-05-20T06:47:15;24.30;55.30
74511;DHT22;62991;50.040;18.400;2023-05-20T06:50:16;24.30;55.30
74511;DHT22;62991;50.040;18.400;2023-05-20T06:53:16;24.30;55.40
74511;DHT22;62991;50.040;18.400;2023-05-20T06:56:17;24.30;55.30
74511;DHT22;62991;50.040;18.400;2023-05-20T06:59:18;24.30;55.30
74511;DHT22;62991;50.040;18.400;2023-05-20T07:02:19;24.30;55.40
74511;DHT22;62991;50.040;18.400;2023-05-20T07:05:20;24.30;55.30
74511;DHT22;62991;50.040;18.400;2023-05-20T07:08:21;24.40;55.30
74511;DHT22;62991;50.040;18.400;2023-05-20T07:11:21;24.40;55.20
74511;DHT22;62991;50.040;18.400;2023-05-20T07:14:22;24.40;55.20
74511;DHT22;62991;50.040;18.400;2023-05-20T07:17:23;24.40;55.20
74511;DHT22;62991;50.040;18.400;2023-05-20T07:20:24;24.50;55.30
74511;DHT22;62991;50.040;18.400;2023-05-20T07:23:25;24.50;55.10
74511;DHT22;62991;50.040;18.400;2023-05-20T07:26:26;24.50;55.20
74511;DHT22;62991;50.040;18.400;2023-05-20T07:29:26;24.50;55.20
74511;DHT22;62991;50.040;18.400;2023-05-20T07:32:27;24.50;55.30
74511;DHT22;62991;50.040;18.400;2023-05-20T07:35:28;24.50;55.30
74511;DHT22;62991;50.040;18.400;2023-05-20T07:38:28;24.50;55.40
74511;DHT22;62991;50.040;18.400;2023-05-20T07:41:29;24.60;55.60
74511;DHT22;62991;50.040;18.400;2023-05-20T07:44:30;24.60;55.90
74511;DHT22;62991;50.040;18.400;2023-05-20T07:47:31;24.60;55.80
74511;DHT22;62991;50.040;18.400;2023-05-20T07:50:33;24.60;55.90
74511;DHT22;62991;50.040;18.400;2023-05-20T07:53:34;24.60;55.90
74511;DHT22;62991;50.040;18.400;2023-05-20T07:56:34;24.70;56.00
74511;DHT22;62991;50.040;18.400;2023-05-20T07:59:35;24.70;56.10
74511;DHT22;62991;50.040;18.400;2023-05-20T08:02:36;24.70;56.20
74511;DHT22;62991;50.040;18.400;2023-05-20T08:05:37;24.80;56.20
74511;DHT22;62991;50.040;18.400;2023-05-20T08:08:38;24.80;56.40
74511;DHT22;62991;50.040;18.400;2023-05-20T08:11:40;24.80;56.40
74511;DHT22;62991;50.040;18.400;2023-05-20T08:14:41;24.80;56.40
74511;DHT22;62991;50.040;18.400;2023-05-20T08:17:43;24.80;56.50
74511;DHT22;62991;50.040;18.400;2023-05-20T08:20:44;24.80;56.40
74511;DHT22;62991;50.040;18.400;2023-05-20T08:23:44;24.90;56.50
74511;DHT22;62991;50.040;18.400;2023-05-20T08:26:45;24.90;56.50
74511;DHT22;62991;50.040;18.400;2023-05-20T08:29:46;24.90;56.50
74511;DHT22;62991;50.040;18.400;2023-05-20T08:32:46;24.90;56.50
74511;DHT22;62991;50.040;18.400;2023-05-20T08:35:48;24.90;56.50
74511;DHT22;62991;50.040;18.400;2023-05-20T08:38:49;24.90;56.40
74511;DHT22;62991;50.040;18.400;2023-05-20T08:41:49;25.00;56.30
74511;DHT22;62991;50.040;18.400;2023-05-20T08:44:51;25.00;56.50
74511;DHT22;62991;50.040;18.400;2023-05-20T08:47:53;25.00;56.60
74511;DHT22;62991;50.040;18.400;2023-05-20T08:50:56;25.00;56.60
74511;DHT22;62991;50.040;18.400;2023-05-20T08:53:58;25.10;56.50
74511;DHT22;62991;50.040;18.400;2023-05-20T08:56:59;25.10;56.30
74511;DHT22;62991;50.040;18.400;2023-05-20T09:00:00;25.20;56.20
74511;DHT22;62991;50.040;18.400;2023-05-20T09:03:01;25.20;56.10
74511;DHT22;62991;50.040;18.400;2023-05-20T09:06:07;25.10;56.20
74511;DHT22;62991;50.040;18.400;2023-05-20T09:09:13;25.30;56.00
74511;DHT22;62991;50.040;18.400;2023-05-20T09:12:13;25.30;56.00
74511;DHT22;62991;50.040;18.400;2023-05-20T09:15:14;25.40;56.00
74511;DHT22;62991;50.040;18.400;2023-05-20T09:18:15;25.50;56.00
74511;DHT22;62991;50.040;18.400;2023-05-20T09:21:16;25.50;56.00
74511;DHT22;62991;50.040;18.400;2023-05-20T09:24:22;25.60;56.00
74511;DHT22;62991;50.040;18.400;2023-05-20T09:27:24;25.60;55.90
74511;DHT22;62991;50.040;18.400;2023-05-20T09:30:25;25.70;55.90
74511;DHT22;62991;50.040;18.400;2023-05-20T09:33:29;25.70;55.70
74511;DHT22;62991;50.040;18.400;2023-05-20T09:36:33;25.80;55.60
74511;DHT22;62991;50.040;18.400;2023-05-20T09:39:44;25.80;55.50
74511;DHT22;62991;50.040;18.400;2023-05-20T09:43:01;25.90;55.30
74511;DHT22;62991;50.040;18.400;2023-05-20T09:46:03;25.90;55.20
74511;DHT22;62991;50.040;18.400;2023-05-20T09:49:04;26.00;55.00
74511;DHT22;62991;50.040;18.400;2023-05-20T09:52:07;26.00;55.10
74511;DHT22;62991;50.040;18.400;2023-05-20T09:55:09;26.00;55.00
74511;DHT22;62991;50.040;18.400;2023-05-20T09:58:11;26.00;55.10
74511;DHT22;62991;50.040;18.400;2023-05-20T10:01:13;26.00;54.90
74511;DHT22;62991;50.040;18.400;2023-05-20T10:04:15;26.00;54.80
74511;DHT22;62991;50.040;18.400;2023-05-20T10:10:39;26.10;54.60
74511;DHT22;62991;50.040;18.400;2023-05-20T10:14:25;26.10;54.60
74511;DHT22;62991;50.040;18.400;2023-05-20T10:20:52;26.20;54.10
74511;DHT22;62991;50.040;18.400;2023-05-20T10:23:53;26.20;53.80
74511;DHT22;62991;50.040;18.400;2023-05-20T10:26:54;26.30;53.50
74511;DHT22;62991;50.040;18.400;2023-05-20T10:29:56;26.30;53.50
74511;DHT22;62991;50.040;18.400;2023-05-20T10:33:02;26.40;53.60
74511;DHT22;62991;50.040;18.400;2023-05-20T10:36:04;26.40;53.50
74511;DHT22;62991;50.040;18.400;2023-05-20T10:39:05;26.40;53.70
74511;DHT22;62991;50.040;18.400;2023-05-20T10:42:06;26.40;53.40
74511;DHT22;62991;50.040;18.400;2023-05-20T10:45:08;26.50;53.50
74511;DHT22;62991;50.040;18.400;2023-05-20T10:48:22;26.40;53.50
74511;DHT22;62991;50.040;18.400;2023-05-20T10:51:24;26.50;53.30
74511;DHT22;62991;50.040;18.400;2023-05-20T10:54:28;26.50;53.20
74511;DHT22;62991;50.040;18.400;2023-05-20T10:57:29;26.50;53.20
74511;DHT22;62991;50.040;18.400;2023-05-20T11:00:31;26.50;53.00
74511;DHT22;62991;50.040;18.400;2023-05-20T11:03:32;26.60;53.50
74511;DHT22;62991;50.040;18.400;2023-05-20T11:06:34;26.60;53.10
74511;DHT22;62991;50.040;18.400;2023-05-20T11:09:35;26.60;53.00
74511;DHT22;62991;50.040;18.400;2023-05-20T11:12:35;26.70;52.90
74511;DHT22;62991;50.040;18.400;2023-05-20T11:15:36;26.70;52.70
74511;DHT22;62991;50.040;18.400;2023-05-20T11:18:38;26.70;52.60
74511;DHT22;62991;50.040;18.400;2023-05-20T11:21:45;26.80;52.80
74511;DHT22;62991;50.040;18.400;2023-05-20T11:24:46;26.70;50.10
74511;DHT22;62991;50.040;18.400;2023-05-20T11:27:48;26.60;49.70
74511;DHT22;62991;50.040;18.400;2023-05-20T11:30:52;26.50;49.90
74511;DHT22;62991;50.040;18.400;2023-05-20T11:33:53;26.20;48.80
74511;DHT22;62991;50.040;18.400;2023-05-20T11:36:57;26.10;48.90
74511;DHT22;62991;50.040;18.400;2023-05-20T11:40:05;25.80;48.80
74511;DHT22;62991;50.040;18.400;2023-05-20T11:43:10;25.60;48.90
74511;DHT22;62991;50.040;18.400;2023-05-20T11:46:11;25.70;49.70
74511;DHT22;62991;50.040;18.400;2023-05-20T11:49:13;25.70;49.30
74511;DHT22;62991;50.040;18.400;2023-05-20T11:52:14;25.60;48.80
74511;DHT22;62991;50.040;18.400;2023-05-20T11:55:15;25.50;49.70
74511;DHT22;62991;50.040;18.400;2023-05-20T11:58:18;25.70;49.80
74511;DHT22;62991;50.040;18.400;2023-05-20T12:01:19;25.70;48.80
74511;DHT22;62991;50.040;18.400;2023-05-20T12:04:19;25.90;49.00
74511;DHT22;62991;50.040;18.400;2023-05-20T12:07:20;26.10;48.30
74511;DHT22;62991;50.040;18.400;2023-05-20T12:10:22;26.10;49.10
74511;DHT22;62991;50.040;18.400;2023-05-20T12:13:23;25.90;49.60
74511;DHT22;62991;50.040;18.400;2023-05-20T12:16:24;26.10;49.50
74511;DHT22;62991;50.040;18.400;2023-05-20T12:19:24;26.10;48.90
74511;DHT22;62991;50.040;18.400;2023-05-20T12:22:25;26.20;48.40
74511;DHT22;62991;50.040;18.400;2023-05-20T12:25:26;26.40;49.70
74511;DHT22;62991;50.040;18.400;2023-05-20T12:28:26;26.60;49.10
74511;DHT22;62991;50.040;18.400;2023-05-20T12:31:27;26.90;48.70
74511;DHT22;62991;50.040;18.400;2023-05-20T12:34:28;26.90;47.50
74511;DHT22;62991;50.040;18.400;2023-05-20T12:37:29;27.10;48.10
74511;DHT22;62991;50.040;18.400;2023-05-20T12:40:30;27.20;48.50
74511;DHT22;62991;50.040;18.400;2023-05-20T12:43:31;27.30;48.50
74511;DHT22;62991;50.040;18.400;2023-05-20T12:46:31;27.40;47.70
74511;DHT22;62991;50.040;18.400;2023-05-20T12:49:32;27.50;47.90
74511;DHT22;62991;50.040;18.400;2023-05-20T12:52:33;27.50;46.70
74511;DHT22;62991;50.040;18.400;2023-05-20T12:55:33;27.40;46.80
74511;DHT22;62991;50.040;18.400;2023-05-20T12:58:34;27.60;46.70
74511;DHT22;62991;50.040;18.400;2023-05-20T13:01:35;27.70;47.00
74511;DHT22;62991;50.040;18.400;2023-05-20T13:04:35;27.90;47.20
74511;DHT22;62991;50.040;18.400;2023-05-20T13:07:36;28.00;45.40
74511;DHT22;62991;50.040;18.400;2023-05-20T13:10:37;27.90;46.70
74511;DHT22;62991;50.040;18.400;2023-05-20T13:13:38;28.00;45.60
74511;DHT22;62991;50.040;18.400;2023-05-20T13:16:38;28.20;45.30
74511;DHT22;62991;50.040;18.400;2023-05-20T13:19:39;28.20;46.20
74511;DHT22;62991;50.040;18.400;2023-05-20T13:22:40;28.50;47.00
74511;DHT22;62991;50.040;18.400;2023-05-20T13:25:40;28.70;46.80
74511;DHT22;62991;50.040;18.400;2023-05-20T13:28:41;28.90;46.60
74511;DHT22;62991;50.040;18.400;2023-05-20T13:31:41;29.10;46.40
74511;DHT22;62991;50.040;18.400;2023-05-20T13:34:43;29.20;46.20
74511;DHT22;62991;50.040;18.400;2023-05-20T13:37:44;29.30;46.00
74511;DHT22;62991;50.040;18.400;2023-05-20T13:40:44;29.40;45.90
74511;DHT22;62991;50.040;18.400;2023-05-20T13:43:45;29.60;45.70
74511;DHT22;62991;50.040;18.400;2023-05-20T13:46:46;29.70;45.60
74511;DHT22;62991;50.040;18.400;2023-05-20T13:49:46;29.80;45.40
74511;DHT22;62991;50.040;18.400;2023-05-20T13:52:47;29.90;45.20
74511;DHT22;62991;50.040;18.400;2023-05-20T13:55:49;30.10;45.10
74511;DHT22;62991;50.040;18.400;2023-05-20T13:58:49;30.20;44.90
74511;DHT22;62991;50.040;18.400;2023-05-20T14:01:52;30.30;44.70
74511;DHT22;62991;50.040;18.400;2023-05-20T14:04:53;30.40;44.60
74511;DHT22;62991;50.040;18.400;2023-05-20T14:07:53;30.50;44.40
74511;DHT22;62991;50.040;18.400;2023-05-20T14:10:54;30.60;44.30
74511;DHT22;62991;50.040;18.400;2023-05-20T14:13:55;30.70;44.20
74511;DHT22;62991;50.040;18.400;2023-05-20T14:16:55;30.70;44.00
74511;DHT22;62991;50.040;18.400;2023-05-20T14:19:56;30.80;44.00
74511;DHT22;62991;50.040;18.400;2023-05-20T14:22:57;30.90;43.90
74511;DHT22;62991;50.040;18.400;2023-05-20T14:25:59;30.90;43.90
74511;DHT22;62991;50.040;18.400;2023-05-20T14:29:00;30.90;43.80
74511;DHT22;62991;50.040;18.400;2023-05-20T14:32:01;31.00;43.70
74511;DHT22;62991;50.040;18.400;2023-05-20T14:35:04;31.00;43.70
74511;DHT22;62991;50.040;18.400;2023-05-20T14:38:04;30.80;44.00
74511;DHT22;62991;50.040;18.400;2023-05-20T14:41:06;30.60;44.40
74511;DHT22;62991;50.040;18.400;2023-05-20T14:44:06;30.30;44.90
74511;DHT22;62991;50.040;18.400;2023-05-20T14:47:07;30.40;44.90
74511;DHT22;62991;50.040;18.400;2023-05-20T14:50:08;30.50;44.70
74511;DHT22;62991;50.040;18.400;2023-05-20T14:53:09;30.50;44.70
74511;DHT22;62991;50.040;18.400;2023-05-20T14:56:09;30.30;44.90
74511;DHT22;62991;50.040;18.400;2023-05-20T14:59:11;30.20;45.20
74511;DHT22;62991;50.040;18.400;2023-05-20T15:02:11;30.00;45.50
74511;DHT22;62991;50.040;18.400;2023-05-20T15:05:13;29.90;45.70
74511;DHT22;62991;50.040;18.400;2023-05-20T15:08:14;29.70;46.00
74511;DHT22;62991;50.040;18.400;2023-05-20T15:11:15;29.60;46.20
74511;DHT22;62991;50.040;18.400;2023-05-20T15:14:16;29.90;45.60
74511;DHT22;62991;50.040;18.400;2023-05-20T15:17:16;30.10;45.40
74511;DHT22;62991;50.040;18.400;2023-05-20T15:20:17;30.00;45.60
74511;DHT22;62991;50.040;18.400;2023-05-20T15:23:17;30.20;45.20
74511;DHT22;62991;50.040;18.400;2023-05-20T15:26:18;30.40;44.90
74511;DHT22;62991;50.040;18.400;2023-05-20T15:29:19;30.40;44.90
74511;DHT22;62991;50.040;18.400;2023-05-20T15:32:20;30.50;44.70
74511;DHT22;62991;50.040;18.400;2023-05-20T15:35:21;30.60;44.70
74511;DHT22;62991;50.040;18.400;2023-05-20T15:38:21;30.60;44.60
74511;DHT22;62991;50.040;18.400;2023-05-20T15:41:22;30.50;44.80
74511;DHT22;62991;50.040;18.400;2023-05-20T15:44:23;30.50;44.90
74511;DHT22;62991;50.040;18.400;2023-05-20T15:47:23;30.40;45.00
74511;DHT22;62991;50.040;18.400;2023-05-20T15:50:24;30.10;45.40
74511;DHT22;62991;50.040;18.400;2023-05-20T15:53:25;29.90;45.80
74511;DHT22;62991;50.040;18.400;2023-05-20T15:56:26;29.90;45.70
74511;DHT22;62991;50.040;18.400;2023-05-20T15:59:26;29.70;45.90
74511;DHT22;62991;50.040;18.400;2023-05-20T16:02:27;29.70;46.10
74511;DHT22;62991;50.040;18.400;2023-05-20T16:05:28;29.70;46.30
74511;DHT22;62991;50.040;18.400;2023-05-20T16:08:28;29.90;42.50
74511;DHT22;62991;50.040;18.400;2023-05-20T16:11:30;30.00;46.00
74511;DHT22;62991;50.040;18.400;2023-05-20T16:14:33;30.10;43.40
74511;DHT22;62991;50.040;18.400;2023-05-20T16:17:34;30.20;44.50
74511;DHT22;62991;50.040;18.400;2023-05-20T16:20:35;30.10;41.50
74511;DHT22;62991;50.040;18.400;2023-05-20T16:23:36;29.60;41.50
74511;DHT22;62991;50.040;18.400;2023-05-20T16:26:36;29.50;41.80
74511;DHT22;62991;50.040;18.400;2023-05-20T16:29:37;29.70;42.30
74511;DHT22;62991;50.040;18.400;2023-05-20T16:32:41;29.60;41.90
74511;DHT22;62991;50.040;18.400;2023-05-20T16:35:42;29.10;42.70
74511;DHT22;62991;50.040;18.400;2023-05-20T16:38:42;29.10;42.60
74511;DHT22;62991;50.040;18.400;2023-05-20T16:41:43;29.00;42.90
74511;DHT22;62991;50.040;18.400;2023-05-20T16:44:44;29.00;43.00
74511;DHT22;62991;50.040;18.400;2023-05-20T16:47:45;28.70;43.60
74511;DHT22;62991;50.040;18.400;2023-05-20T16:50:45;28.60;44.30
74511;DHT22;62991;50.040;18.400;2023-05-20T16:53:46;28.40;44.30
74511;DHT22;62991;50.040;18.400;2023-05-20T16:56:47;28.40;45.10
74511;DHT22;62991;50.040;18.400;2023-05-20T16:59:47;28.40;45.50
74511;DHT22;62991;50.040;18.400;2023-05-20T17:02:48;28.50;45.00
74511;DHT22;62991;50.040;18.400;2023-05-20T17:05:49;28.40;45.60
74511;DHT22;62991;50.040;18.400;2023-05-20T17:08:49;28.00;46.50
74511;DHT22;62991;50.040;18.400;2023-05-20T17:11:50;28.00;47.10
74511;DHT22;62991;50.040;18.400;2023-05-20T17:14:52;28.10;47.10
74511;DHT22;62991;50.040;18.400;2023-05-20T17:17:53;28.20;47.30
74511;DHT22;62991;50.040;18.400;2023-05-20T17:20:53;28.20;47.50
74511;DHT22;62991;50.040;18.400;2023-05-20T17:23:54;28.10;47.70
74511;DHT22;62991;50.040;18.400;2023-05-20T17:26:57;28.10;48.20
74511;DHT22;62991;50.040;18.400;2023-05-20T17:30:08;28.00;48.30
74511;DHT22;62991;50.040;18.400;2023-05-20T17:33:09;27.90;48.10
74511;DHT22;62991;50.040;18.400;2023-05-20T17:36:10;27.80;48.30
74511;DHT22;62991;50.040;18.400;2023-05-20T17:39:11;27.70;48.20
74511;DHT22;62991;50.040;18.400;2023-05-20T17:42:11;27.60;48.50
74511;DHT22;62991;50.040;18.400;2023-05-20T17:45:12;27.30;48.30
74511;DHT22;62991;50.040;18.400;2023-05-20T17:48:13;27.00;49.70
74511;DHT22;62991;50.040;18.400;2023-05-20T17:51:14;27.10;49.20
74511;DHT22;62991;50.040;18.400;2023-05-20T17:54:16;27.20;49.30
74511;DHT22;62991;50.040;18.400;2023-05-20T17:57:16;27.30;48.70
74511;DHT22;62991;50.040;18.400;2023-05-20T18:00:18;27.20;49.30
74511;DHT22;62991;50.040;18.400;2023-05-20T18:03:20;27.20;49.00
74511;DHT22;62991;50.040;18.400;2023-05-20T18:06:22;27.20;49.60
74511;DHT22;62991;50.040;18.400;2023-05-20T18:09:25;27.20;49.40
74511;DHT22;62991;50.040;18.400;2023-05-20T18:12:26;27.20;49.90
74511;DHT22;62991;50.040;18.400;2023-05-20T18:15:27;27.20;49.50
74511;DHT22;62991;50.040;18.400;2023-05-20T18:18:27;27.10;49.30
74511;DHT22;62991;50.040;18.400;2023-05-20T18:21:29;27.10;49.30
74511;DHT22;62991;50.040;18.400;2023-05-20T18:24:30;27.00;50.20
74511;DHT22;62991;50.040;18.400;2023-05-20T18:27:30;26.90;51.10
74511;DHT22;62991;50.040;18.400;2023-05-20T18:30:31;26.90;51.10
74511;DHT22;62991;50.040;18.400;2023-05-20T18:33:32;26.90;50.90
74511;DHT22;62991;50.040;18.400;2023-05-20T18:36:33;26.80;50.60
74511;DHT22;62991;50.040;18.400;2023-05-20T18:39:33;26.80;50.40
74511;DHT22;62991;50.040;18.400;2023-05-20T18:42:34;26.70;50.30
74511;DHT22;62991;50.040;18.400;2023-05-20T18:45:35;26.70;50.20
74511;DHT22;62991;50.040;18.400;2023-05-20T18:48:35;26.60;50.40
74511;DHT22;62991;50.040;18.400;2023-05-20T18:51:39;26.60;50.20
74511;DHT22;62991;50.040;18.400;2023-05-20T18:54:40;26.30;50.40